Data for 11/24/2006

Time Sea-Level Adjusted Pressure Absolute Pressure Temperature Relative Humidity Dew Point   
(mb) (inHg) (mb) (inHg) (C) (F) (%) (C) (F)
00:05 1016 30 846 24.98 -0.1 31.8 32 -15.1 4.9
00:10 1016 30 846 24.98 -0.4 31.2 35 -14.2 6.4
00:15 1016 30 846 24.98 -0.6 31 34 -14.7 5.5
00:20 1016 30 846 24.98 -0.6 31 35 -14.3 6.3
00:25 1016 30 846 24.98 -0.7 30.7 37 -13.6 7.4
00:30 1016 30 845 24.95 -0.8 30.5 37 -13.7 7.4
00:35 1016 30 845 24.95 -0.9 30.4 38 -13.5 7.6
00:40 1016 30 845 24.95 -0.9 30.4 37 -13.8 7.2
00:45 1016 30 846 24.98 -0.7 30.7 37 -13.8 7.1
00:50 1016 30 846 24.98 -0.3 31.5 32 -15.3 4.5
00:55 1016 30 845 24.95 0.2 32.4 31 -15 5
01:00 1016 30 845 24.95 0.2 32.4 31 -15 5.1
01:05 1016 30 845 24.95 0.2 32.3 31 -15.1 4.8
01:10 1016 30 845 24.95 0.3 32.5 30 -15.3 4.5
01:15 1016 30 845 24.95 0.4 32.8 31 -15 4.9
01:20 1016 30 845 24.95 0.4 32.7 32 -14.3 6.2
01:25 1016 30 845 24.95 0.3 32.5 31 -14.9 5.2
01:30 1016 30 845 24.95 0.5 32.8 31 -14.7 5.6
01:35 1016 30 845 24.95 0.3 32.5 33 -14.1 6.7
01:40 1016 30 845 24.95 -0 31.9 37 -13.1 8.4
01:45 1016 30 845 24.95 -0.5 31.1 36 -13.7 7.4
01:50 1016 30 845 24.95 -0.2 31.6 33 -14.8 5.4
01:55 1015 29.97 845 24.95 0.3 32.6 32 -14.6 5.8
02:00 1015 29.97 845 24.95 0.5 32.8 32 -14.6 5.7
02:05 1015 29.97 845 24.95 0.4 32.7 32 -14.6 5.7
02:10 1015 29.97 845 24.95 0.3 32.5 33 -14.3 6.2
02:15 1015 29.97 845 24.95 0.2 32.3 33 -14.3 6.3
02:20 1015 29.97 845 24.95 -0.1 31.9 34 -14.3 6.3
02:25 1015 29.97 845 24.95 -0.1 31.8 33 -14.4 6.1
02:30 1015 29.97 844 24.92 -0.2 31.7 34 -14.3 6.2
02:35 1015 29.97 844 24.92 -0.3 31.4 34 -14.4 6
02:40 1015 29.97 844 24.92 -0.3 31.5 34 -14.4 6.2
02:45 1015 29.97 844 24.92 -0.3 31.5 34 -14.3 6.2
02:50 1015 29.97 844 24.92 -0.3 31.4 33 -14.6 5.7
02:55 1015 29.97 844 24.92 -0.2 31.7 34 -14.2 6.4
03:00 1015 29.97 844 24.92 -0.2 31.6 35 -14 6.8
03:05 1015 29.97 844 24.92 -0.4 31.2 35 -14 6.7
03:10 1015 29.97 844 24.92 -0.4 31.2 35 -14 6.8
03:15 1015 29.97 844 24.92 -0.5 31.1 34 -14.4 6.1
03:20 1015 29.97 844 24.92 -0.5 31.2 35 -14.2 6.4
03:25 1015 29.97 844 24.92 -0.3 31.4 35 -14.1 6.6
03:30 1014 29.94 844 24.92 -0.3 31.4 34 -14.4 6.1
03:35 1014 29.94 843 24.89 0 32.1 34 -14 6.8
03:40 1014 29.94 843 24.89 0.1 32.2 33 -14.3 6.2
03:45 1014 29.94 843 24.89 0.1 32.2 34 -14.1 6.7
03:50 1014 29.94 843 24.89 0.2 32.4 34 -13.8 7.1
03:55 1014 29.94 843 24.89 0.1 32.1 33 -14.3 6.3
04:00 1014 29.94 843 24.89 0.3 32.5 34 -13.9 6.9
04:05 1014 29.94 843 24.89 0.1 32.2 36 -13.4 7.9
04:10 1014 29.94 843 24.89 0.2 32.3 38 -12.6 9.2
04:15 1014 29.94 843 24.89 -0.2 31.6 36 -13.7 7.3
04:20 1013 29.91 843 24.89 -0.2 31.7 36 -13.6 7.5
04:25 1013 29.91 843 24.89 0.2 32.4 34 -14 6.9
04:30 1013 29.91 842 24.86 0.2 32.4 36 -13 8.5
04:35 1013 29.91 842 24.86 0 32.1 37 -13.2 8.3
04:40 1013 29.91 842 24.86 0.1 32.2 39 -12.2 10.1
04:45 1013 29.91 842 24.86 0.1 32.1 38 -12.8 9
04:50 1013 29.91 842 24.86 0.2 32.4 35 -13.5 7.7
04:55 1013 29.91 842 24.86 0.2 32.3 37 -12.8 8.9
05:00 1013 29.91 843 24.89 0.2 32.3 35 -13.6 7.6
05:05 1014 29.94 843 24.89 0.3 32.5 36 -13.3 8.1
05:10 1014 29.94 843 24.89 0.1 32.1 36 -13.3 8
05:15 1014 29.94 843 24.89 -0 31.9 36 -13.6 7.6
05:20 1013 29.91 843 24.89 -0 32 37 -13 8.7
05:25 1013 29.91 843 24.89 -0.2 31.6 39 -12.6 9.4
05:30 1013 29.91 843 24.89 -0.4 31.2 41 -12.1 10.2
05:35 1013 29.91 842 24.86 -0.4 31.2 39 -12.8 8.9
05:40 1013 29.91 842 24.86 -0 31.9 37 -13 8.6
05:45 1013 29.91 842 24.86 0.3 32.5 36 -12.9 8.7
05:50 1013 29.91 842 24.86 0.2 32.4 38 -12.6 9.3
05:55 1013 29.91 842 24.86 0.1 32.2 37 -12.8 9
06:00 1013 29.91 842 24.86 0.1 32.2 38 -12.7 9.1
06:05 1012 29.88 842 24.86 0.5 32.9 39 -12 10.3
06:10 1012 29.88 842 24.86 0.4 32.8 39 -12 10.4
06:15 1013 29.91 842 24.86 0.4 32.8 36 -13 8.6
06:20 1013 29.91 842 24.86 0.5 32.8 36 -12.8 9
06:25 1013 29.91 842 24.86 0.6 33.1 36 -13 8.7
06:30 1013 29.91 842 24.86 0.5 32.9 35 -13.1 8.3
06:35 1013 29.91 842 24.86 0.7 33.3 35 -13 8.7
06:40 1013 29.91 842 24.86 0.8 33.4 35 -12.9 8.8
06:45 1013 29.91 842 24.86 0.7 33.2 36 -12.8 9
06:50 1013 29.91 842 24.86 0.6 33.2 36 -12.8 8.9
06:55 1013 29.91 842 24.86 0.6 33.1 36 -13 8.6
07:00 1012 29.88 842 24.86 0.7 33.2 36 -12.7 9.1
07:05 1013 29.91 842 24.86 0.6 33.1 36 -12.9 8.7
07:10 1013 29.91 842 24.86 0.6 33.1 37 -12.6 9.4
07:15 1013 29.91 842 24.86 0.5 33 38 -12.3 9.9
07:20 1013 29.91 842 24.86 0.5 33 36 -12.9 8.7
07:25 1013 29.91 842 24.86 0.5 32.9 37 -12.5 9.4
07:30 1013 29.91 842 24.86 0.5 32.9 37 -12.5 9.5
07:35 1013 29.91 842 24.86 0.6 33.1 40 -11.4 11.5
07:40 1013 29.91 842 24.86 0.1 32.1 42 -11.5 11.4
07:45 1013 29.91 842 24.86 0 32.1 39 -12.5 9.6
07:50 1013 29.91 842 24.86 0.3 32.6 38 -12.3 9.9
07:55 1013 29.91 842 24.86 0.4 32.8 38 -12.2 10
08:00 1013 29.91 842 24.86 0.4 32.7 38 -12.5 9.5
08:05 1013 29.91 842 24.86 0.5 32.8 37 -12.5 9.4
08:10 1013 29.91 842 24.86 0.5 33 37 -12.5 9.6
08:15 1013 29.91 842 24.86 0.6 33.1 38 -12 10.4
08:20 1013 29.91 842 24.86 0.7 33.2 38 -12.2 10
08:25 1013 29.91 842 24.86 0.9 33.6 37 -12.3 9.9
08:30 1013 29.91 842 24.86 1.2 34.1 35 -12.6 9.3
08:35 1013 29.91 842 24.86 1.1 33.9 36 -12.3 9.9
08:40 1013 29.91 842 24.86 1.2 34.1 36 -12.5 9.5
08:45 1013 29.91 843 24.89 1.2 34.2 34 -12.8 8.9
08:50 1013 29.91 842 24.86 1.5 34.6 34 -12.6 9.2
08:55 1013 29.91 842 24.86 2.1 35.7 34 -12.4 9.6
09:00 1013 29.91 843 24.89 2.2 35.9 34 -12.2 10.1
09:05 1013 29.91 842 24.86 2 35.6 34 -12.1 10.2
09:10 1013 29.91 842 24.86 2.1 35.9 33 -12.4 9.7
09:15 1013 29.91 843 24.89 2.6 36.6 33 -12.1 10.2
09:20 1013 29.91 843 24.89 2.7 36.8 32 -12.5 9.6
09:25 1013 29.91 843 24.89 2.9 37.3 32 -12.1 10.3
09:30 1013 29.91 843 24.89 3 37.4 33 -11.9 10.5
09:35 1013 29.91 843 24.89 3 37.4 33 -11.7 10.9
09:40 1013 29.91 843 24.89 3 37.4 32 -12 10.4
09:45 1013 29.91 843 24.89 3.1 37.7 32 -12.1 10.1
09:50 1014 29.94 843 24.89 3.2 37.7 32 -11.9 10.6
09:55 1013 29.91 843 24.89 3.1 37.6 32 -12.2 10.1
10:00 1013 29.91 843 24.89 3.3 37.9 32 -11.9 10.5
10:05 1014 29.94 843 24.89 3.5 38.3 33 -11.5 11.4
10:10 1013 29.91 843 24.89 3.5 38.3 33 -11.4 11.5
10:15 1014 29.94 843 24.89 3.3 38 33 -11.7 11
10:20 1013 29.91 843 24.89 3.1 37.6 32 -11.9 10.6
10:25 1013 29.91 843 24.89 3.2 37.8 32 -11.9 10.7
10:30 1013 29.91 843 24.89 3.3 38 34 -11.1 11.9
10:35 1013 29.91 843 24.89 3.3 38 35 -10.8 12.5
10:40 1013 29.91 842 24.86 3.2 37.7 34 -11.2 11.9
10:45 1013 29.91 842 24.86 2.9 37.3 35 -10.9 12.4
10:50 1013 29.91 842 24.86 2.9 37.2 33 -12.1 10.3
10:55 1013 29.91 842 24.86 3 37.4 34 -11.2 11.8
11:00 1013 29.91 842 24.86 2.7 36.9 36 -11 12.2
11:05 1013 29.91 842 24.86 2.6 36.7 35 -11.3 11.6
11:10 1013 29.91 842 24.86 3 37.3 35 -10.9 12.3
11:15 1013 29.91 842 24.86 3.1 37.6 34 -11.2 11.9
11:20 1013 29.91 842 24.86 3.3 38 33 -11.4 11.5
11:25 1013 29.91 842 24.86 3.3 38 34 -10.9 12.4
11:30 1013 29.91 842 24.86 3.2 37.7 37 -10.3 13.5
11:35 1013 29.91 842 24.86 3.3 37.9 32 -11.8 10.7
11:40 1013 29.91 842 24.86 3.4 38.2 32 -11.7 11
11:45 1013 29.91 842 24.86 3.6 38.4 32 -11.7 11
11:50 1013 29.91 842 24.86 3.6 38.4 34 -10.7 12.7
11:55 1013 29.91 842 24.86 3.3 37.9 33 -11.4 11.5
12:00 1013 29.91 842 24.86 3.4 38.2 32 -11.7 11
12:05 1013 29.91 842 24.86 3.6 38.5 34 -11 12.2
12:10 1013 29.91 842 24.86 3.7 38.6 32 -11.6 11.1
12:15 1013 29.91 842 24.86 3.5 38.3 34 -10.8 12.5
12:20 1013 29.91 842 24.86 3.7 38.6 33 -11.2 11.8
12:25 1013 29.91 842 24.86 3.6 38.5 33 -11.2 11.8
12:30 1013 29.91 842 24.86 3.8 38.8 33 -11 12.2
12:35 1013 29.91 842 24.86 3.7 38.7 32 -11.4 11.6
12:40 1013 29.91 842 24.86 3.8 38.8 34 -10.8 12.6
12:45 1013 29.91 842 24.86 3.7 38.6 32 -11.7 10.9
12:50 1013 29.91 842 24.86 3.7 38.7 33 -11.1 12
12:55 1013 29.91 842 24.86 3.8 38.8 32 -11.5 11.3
13:00 1013 29.91 842 24.86 3.8 38.8 31 -11.7 10.9
13:05 1013 29.91 842 24.86 3.8 38.8 32 -11.6 11.1
13:10 1013 29.91 842 24.86 3.7 38.6 34 -10.9 12.5
13:15 1013 29.91 842 24.86 3.6 38.5 30 -12.6 9.4
13:20 1013 29.91 842 24.86 3.6 38.6 32 -11.4 11.4
13:25 1013 29.91 842 24.86 3.1 37.6 33 -11.7 11
13:30 1013 29.91 842 24.86 2.9 37.2 33 -11.8 10.8
13:35 1013 29.91 842 24.86 2.8 37 35 -11.2 11.9
13:40 1012 29.88 842 24.86 2.6 36.7 34 -11.7 11
13:45 1012 29.88 842 24.86 2.6 36.6 35 -11.3 11.7
13:50 1012 29.88 842 24.86 2.7 36.9 34 -11.6 11.2
13:55 1012 29.88 842 24.86 2.9 37.2 35 -11.1 12.1
14:00 1012 29.88 842 24.86 2.7 36.9 35 -11.2 11.8
14:05 1012 29.88 842 24.86 2.7 36.9 34 -11.8 10.8
14:10 1012 29.88 842 24.86 2.8 37.1 35 -11.1 12.1
14:15 1012 29.88 842 24.86 2.8 37 35 -11.2 11.8
14:20 1012 29.88 841 24.83 2.8 37.1 36 -10.7 12.8
14:25 1012 29.88 841 24.83 2.8 37.1 36 -10.8 12.6
14:30 1012 29.88 841 24.83 2.8 37 37 -10.5 13.2
14:35 1012 29.88 841 24.83 3 37.4 37 -10.2 13.6
14:40 1012 29.88 841 24.83 3 37.5 37 -10.4 13.2
14:45 1012 29.88 841 24.83 3.2 37.8 35 -10.6 12.9
14:50 1012 29.88 842 24.86 3.2 37.8 35 -10.8 12.6
14:55 1012 29.88 842 24.86 3.2 37.8 36 -10.6 13
15:00 1012 29.88 842 24.86 3.1 37.7 37 -10.1 13.8
15:05 1012 29.88 841 24.83 3.1 37.6 38 -9.9 14.2
15:10 1012 29.88 841 24.83 3.1 37.6 36 -10.5 13.1
15:15 1012 29.88 842 24.86 3.1 37.7 38 -9.9 14.3
15:20 1012 29.88 842 24.86 3.1 37.6 39 -9.6 14.8
15:25 1012 29.88 842 24.86 3.3 38 38 -9.8 14.3
15:30 1012 29.88 842 24.86 3.3 38 36 -10.5 13.1
15:35 1012 29.88 842 24.86 3.4 38 37 -10.1 13.8
15:40 1012 29.88 842 24.86 3.5 38.3 37 -10 14
15:45 1013 29.91 842 24.86 3.4 38.1 36 -10.3 13.5
15:50 1013 29.91 842 24.86 3.4 38.1 38 -9.6 14.7
15:55 1013 29.91 842 24.86 3.3 38 38 -9.6 14.6
16:00 1013 29.91 842 24.86 3.1 37.6 38 -9.7 14.5
16:05 1013 29.91 842 24.86 3.1 37.6 38 -9.9 14.3
16:10 1013 29.91 842 24.86 3.1 37.6 38 -9.8 14.4
16:15 1013 29.91 842 24.86 3.1 37.6 38 -9.9 14.2
16:20 1013 29.91 842 24.86 2.8 37 41 -9.3 15.3
16:25 1013 29.91 842 24.86 2.4 36.2 40 -9.9 14.1
16:30 1013 29.91 842 24.86 2.1 35.7 42 -9.7 14.6
16:35 1013 29.91 842 24.86 1.9 35.3 40 -10.4 13.3
16:40 1013 29.91 842 24.86 1.6 34.9 43 -9.7 14.5
16:45 1013 29.91 842 24.86 1.4 34.5 42 -10.1 13.9
16:50 1013 29.91 842 24.86 1.4 34.5 41 -10.5 13.1
16:55 1013 29.91 842 24.86 1.4 34.6 40 -10.9 12.4
17:00 1013 29.91 842 24.86 1.5 34.6 39 -10.9 12.3
17:05 1013 29.91 842 24.86 1.4 34.5 40 -10.9 12.3
17:10 1013 29.91 842 24.86 1.2 34.2 41 -10.6 13
17:15 1013 29.91 842 24.86 0.9 33.7 43 -10.3 13.4
17:20 1013 29.91 842 24.86 0.6 33.1 44 -10.3 13.4
17:25 1013 29.91 842 24.86 0.3 32.6 42 -11.1 12
17:30 1013 29.91 842 24.86 0.2 32.4 42 -11.2 11.8
17:35 1013 29.91 842 24.86 0.3 32.5 41 -11.4 11.4
17:40 1013 29.91 842 24.86 0.4 32.7 43 -10.9 12.3
17:45 1013 29.91 842 24.86 0.1 32.2 45 -10.3 13.4
17:50 1013 29.91 842 24.86 -0.4 31.2 46 -10.7 12.7
17:55 1013 29.91 842 24.86 -0.5 31.1 47 -10.4 13.2
18:00 1013 29.91 842 24.86 -0.3 31.5 44 -11 12.2
18:05 1013 29.91 842 24.86 -0.2 31.6 45 -10.9 12.4
18:10 1013 29.91 842 24.86 -0.2 31.7 45 -10.8 12.5
18:15 1013 29.91 842 24.86 -0.2 31.7 46 -10.4 13.3
18:20 1013 29.91 842 24.86 -0.3 31.5 47 -10.3 13.4
18:25 1013 29.91 842 24.86 -0.5 31.1 44 -11.3 11.6
18:30 1013 29.91 842 24.86 -0.6 30.9 43 -11.6 11.2
18:35 1013 29.91 842 24.86 -0.7 30.7 45 -11.2 11.8
18:40 1013 29.91 842 24.86 -0.7 30.7 42 -12 10.4
18:45 1013 29.91 842 24.86 -0.2 31.7 42 -11.7 10.9
18:50 1013 29.91 842 24.86 0.1 32.1 42 -11.5 11.3
18:55 1013 29.91 843 24.89 -0 31.9 41 -11.6 11
19:00 1013 29.91 843 24.89 -0.4 31.3 42 -11.8 10.8
19:05 1013 29.91 843 24.89 -0.4 31.2 42 -11.7 10.9
19:10 1013 29.91 842 24.86 -0.4 31.3 43 -11.5 11.4
19:15 1013 29.91 842 24.86 -0.7 30.8 45 -11.3 11.7
19:20 1013 29.91 842 24.86 -1 30.3 45 -11.3 11.6
19:25 1013 29.91 842 24.86 -0.9 30.4 46 -11.1 12
19:30 1013 29.91 842 24.86 -0.9 30.3 47 -10.9 12.4
19:35 1013 29.91 842 24.86 -1.7 29 50 -10.8 12.6
19:40 1013 29.91 842 24.86 -2 28.4 51 -10.8 12.5
19:45 1013 29.91 842 24.86 -1.7 28.9 50 -10.7 12.7
19:50 1013 29.91 842 24.86 -1 30.3 47 -10.9 12.4
19:55 1013 29.91 842 24.86 -0.3 31.4 43 -11.5 11.3
20:00 1013 29.91 842 24.86 -0.1 31.8 44 -11 12.2
20:05 1013 29.91 842 24.86 -0.5 31.1 46 -10.6 12.9
20:10 1013 29.91 842 24.86 -0.8 30.6 46 -11 12.2
20:15 1013 29.91 843 24.89 -0.8 30.5 47 -10.9 12.5
20:20 1013 29.91 843 24.89 -1 30.2 47 -11 12.3
20:25 1013 29.91 842 24.86 -1 30.2 47 -11.1 12.1
20:30 1013 29.91 842 24.86 -1 30.2 46 -11.2 11.9
20:35 1013 29.91 843 24.89 -1.1 30 47 -10.9 12.3
20:40 1013 29.91 843 24.89 -1 30.1 47 -11 12.2
20:45 1013 29.91 843 24.89 -0.8 30.6 45 -11.2 11.8
20:50 1013 29.91 843 24.89 -0.6 30.9 45 -11 12.1
20:55 1013 29.91 843 24.89 -0.7 30.8 46 -11 12.2
21:00 1013 29.91 843 24.89 -0.6 31 46 -10.7 12.7
21:05 1013 29.91 842 24.86 -0.6 30.9 45 -11.1 12
21:10 1013 29.91 843 24.89 -0.8 30.6 47 -10.7 12.8
21:15 1013 29.91 842 24.86 -0.7 30.7 45 -11.3 11.7
21:20 1013 29.91 842 24.86 -0.7 30.8 46 -10.8 12.5
21:25 1013 29.91 842 24.86 -0.9 30.4 46 -11.1 12.1
21:30 1013 29.91 842 24.86 -0.9 30.3 48 -10.6 13
21:35 1013 29.91 842 24.86 -1.1 30 50 -10.4 13.3
21:40 1013 29.91 842 24.86 -1.3 29.7 50 -10.4 13.3
21:45 1013 29.91 842 24.86 -1.2 29.8 50 -10.3 13.5
21:50 1013 29.91 842 24.86 -1.3 29.7 52 -10 14
21:55 1013 29.91 842 24.86 -1.4 29.4 53 -9.9 14.2
22:00 1013 29.91 842 24.86 -1.5 29.3 52 -10 14
22:05 1013 29.91 842 24.86 -1.1 30 47 -11 12.2
22:10 1013 29.91 842 24.86 -0.7 30.8 45 -11.1 12
22:15 1013 29.91 842 24.86 -0.4 31.3 45 -10.9 12.4
22:20 1013 29.91 842 24.86 -0.3 31.5 45 -11 12.3
22:25 1013 29.91 843 24.89 -0.1 31.7 47 -10.2 13.6
22:30 1013 29.91 843 24.89 -0.1 31.7 47 -10.2 13.6
22:35 1013 29.91 842 24.86 0 32 47 -10 14.1
22:40 1013 29.91 842 24.86 -0.2 31.6 47 -10.1 13.8
22:45 1013 29.91 842 24.86 -0.3 31.5 46 -10.5 13.1
22:50 1013 29.91 842 24.86 -0.4 31.3 44 -11.1 11.9
22:55 1013 29.91 842 24.86 -0.4 31.3 46 -10.7 12.8
23:00 1013 29.91 842 24.86 -0.6 30.9 45 -11 12.2
23:05 1013 29.91 842 24.86 -0.3 31.5 46 -10.5 13.2
23:10 1013 29.91 842 24.86 -0.2 31.7 45 -10.8 12.6
23:15 1013 29.91 842 24.86 -0.2 31.7 45 -10.8 12.5
23:20 1013 29.91 842 24.86 -0.4 31.2 45 -10.9 12.5
23:25 1013 29.91 842 24.86 -0.5 31.1 47 -10.6 13
23:30 1013 29.91 842 24.86 -0.5 31 44 -11.4 11.5
23:35 1013 29.91 842 24.86 -0.4 31.3 45 -11.1 12.1
23:40 1013 29.91 842 24.86 -0.8 30.6 47 -10.7 12.7
23:45 1013 29.91 842 24.86 -1.1 29.9 48 -10.8 12.6
23:50 1013 29.91 842 24.86 -1.3 29.7 48 -10.9 12.5
23:55 1013 29.91 842 24.86 -1.6 29.2 51 -10.5 13
24:00 1013 29.91 842 24.86 -1.8 28.8 52 -10.5 13.1